createdAt,value
2023-03-17T00:00:49.388Z,935.15
2023-03-17T00:01:50.409Z,935.15
2023-03-17T00:02:51.248Z,935.17
2023-03-17T00:03:51.558Z,935.12
2023-03-17T00:04:52.418Z,935.13
2023-03-17T00:05:52.700Z,935.1
2023-03-17T00:06:53.641Z,935.11
2023-03-17T00:07:53.884Z,935.13
2023-03-17T00:08:54.804Z,935.12
2023-03-17T00:09:55.742Z,935.09
2023-03-17T00:10:56.658Z,935.08
2023-03-17T00:11:56.863Z,935.12
2023-03-17T00:12:57.528Z,935.08
2023-03-17T00:13:58.026Z,935.07
2023-03-17T00:14:58.973Z,935.06
2023-03-17T00:15:59.256Z,935.05
2023-03-17T00:16:59.918Z,935.01
2023-03-17T00:18:00.908Z,935.03
2023-03-17T00:19:01.824Z,935.02
2023-03-17T00:20:02.396Z,935
2023-03-17T00:21:02.602Z,934.99
2023-03-17T00:22:03.243Z,934.92
2023-03-17T00:23:03.600Z,934.92
2023-03-17T00:24:03.804Z,934.91
2023-03-17T00:25:04.257Z,934.91
2023-03-17T00:26:04.538Z,934.86
2023-03-17T00:27:05.180Z,934.87
2023-03-17T00:28:06.103Z,934.87
2023-03-17T00:29:07.019Z,934.89
2023-03-17T00:30:07.665Z,934.81
2023-03-17T00:31:08.385Z,934.81
2023-03-17T00:32:08.926Z,934.78
2023-03-17T00:33:09.946Z,934.77
2023-03-17T00:34:10.577Z,934.78
2023-03-17T00:35:11.212Z,934.8
2023-03-17T00:36:11.796Z,934.79
2023-03-17T00:37:12.720Z,934.8
2023-03-17T00:38:12.637Z,934.76
2023-03-17T00:40:13.808Z,934.8
2023-03-17T00:41:13.958Z,934.78
2023-03-17T00:42:14.165Z,934.75
2023-03-17T00:43:14.833Z,934.73
2023-03-17T00:44:15.794Z,934.72
2023-03-17T00:45:16.005Z,934.71
2023-03-17T00:46:16.602Z,934.67
2023-03-17T00:47:17.432Z,934.67
2023-03-17T00:48:17.707Z,934.68
2023-03-17T00:49:18.624Z,934.69
2023-03-17T00:50:18.932Z,934.65
2023-03-17T00:51:19.572Z,934.66
2023-03-17T00:52:19.825Z,934.65
2023-03-17T00:53:20.025Z,934.68
2023-03-17T00:54:20.314Z,934.66
2023-03-17T00:55:20.825Z,934.62
2023-03-17T00:56:21.183Z,934.64
2023-03-17T00:57:21.385Z,934.63
2023-03-17T00:58:21.600Z,934.65
2023-03-17T00:59:22.137Z,934.63
2023-03-17T01:00:23.081Z,934.66
2023-03-17T01:01:23.785Z,934.62
2023-03-17T01:02:24.206Z,934.65
2023-03-17T01:03:24.251Z,934.66
2023-03-17T01:04:24.490Z,934.7
2023-03-17T01:07:14.490Z,934.71
2023-03-17T01:08:14.704Z,934.7
2023-03-17T01:09:14.912Z,934.64
2023-03-17T01:10:15.536Z,934.67
2023-03-17T01:11:16.324Z,934.67
2023-03-17T01:12:16.681Z,934.68
2023-03-17T01:13:17.173Z,934.68
2023-03-17T01:14:17.407Z,934.71
2023-03-17T01:15:17.759Z,934.68
2023-03-17T01:16:18.080Z,934.72
2023-03-17T01:17:19.096Z,934.71
2023-03-17T01:18:20.130Z,934.69
2023-03-17T01:19:20.285Z,934.66
2023-03-17T01:20:20.784Z,934.65
2023-03-17T01:21:21.389Z,934.65
2023-03-17T01:22:22.317Z,934.63
2023-03-17T01:23:22.969Z,934.59
2023-03-17T01:24:23.882Z,934.57
2023-03-17T01:25:24.896Z,934.59
2023-03-17T01:26:26.067Z,934.55
2023-03-17T01:27:26.160Z,934.52
2023-03-17T01:28:26.374Z,934.47
2023-03-17T01:29:26.894Z,934.46
2023-03-17T01:30:27.137Z,934.44
2023-03-17T01:31:27.320Z,934.45
2023-03-17T01:32:28.294Z,934.41
2023-03-17T01:33:28.494Z,934.42
2023-03-17T01:34:28.705Z,934.35
2023-03-17T01:35:28.944Z,934.33
2023-03-17T01:40:05.015Z,934.25
2023-03-17T01:41:05.226Z,934.25
2023-03-17T01:42:05.716Z,934.25
2023-03-17T01:43:05.941Z,934.24
2023-03-17T01:44:06.187Z,934.26
2023-03-17T01:45:06.872Z,934.2
2023-03-17T01:46:07.889Z,934.2
2023-03-17T01:47:08.207Z,934.17
2023-03-17T08:26:34.508Z,933.8
2023-03-17T08:27:35.271Z,933.81
2023-03-17T08:28:35.575Z,933.78
2023-03-17T08:29:36.314Z,933.8
2023-03-17T08:30:37.727Z,933.81
2023-03-17T08:31:37.891Z,933.82
2023-03-17T08:32:38.726Z,933.88
2023-03-17T08:33:38.985Z,933.87
2023-03-17T08:34:39.676Z,933.85
2023-03-17T08:35:39.929Z,933.86
2023-03-17T08:36:40.366Z,933.81
2023-03-17T08:37:41.317Z,933.78
2023-03-17T08:38:42.186Z,933.77
2023-03-17T08:39:43.146Z,933.69
2023-03-17T08:40:43.317Z,933.66
2023-03-17T08:41:43.541Z,933.7
2023-03-17T08:42:44.166Z,933.69
2023-03-17T08:43:45.160Z,933.69
2023-03-17T08:44:46.243Z,933.71
2023-03-17T08:45:47.207Z,933.61
2023-03-17T08:46:47.413Z,933.58
2023-03-17T08:47:47.926Z,933.61
2023-03-17T08:48:48.440Z,933.6
2023-03-17T08:49:48.684Z,933.61
2023-03-17T08:50:49.208Z,933.67
2023-03-17T08:51:49.837Z,933.65
2023-03-17T08:52:50.484Z,933.61
2023-03-17T08:53:50.703Z,933.6
2023-03-17T08:54:50.838Z,933.65
2023-03-17T08:55:51.773Z,933.57
2023-03-17T08:56:52.767Z,933.6
2023-03-17T08:57:53.366Z,933.57
2023-03-17T08:58:54.336Z,933.62
2023-03-17T08:59:54.603Z,933.61
2023-03-17T09:00:54.851Z,933.58
2023-03-17T09:01:55.057Z,933.58
2023-03-17T09:02:55.219Z,933.62
2023-03-17T09:03:56.318Z,933.58
2023-03-17T09:04:56.462Z,933.59
2023-03-17T09:05:57.439Z,933.6
2023-03-17T09:07:04.568Z,933.62
2023-03-17T09:07:57.867Z,933.61
2023-03-17T09:08:58.088Z,933.63
2023-03-17T09:09:58.323Z,933.65
2023-03-17T09:10:58.622Z,933.64
2023-03-17T09:11:59.321Z,933.65
2023-03-17T09:13:00.078Z,933.67
2023-03-17T09:14:00.329Z,933.71
2023-03-17T09:15:00.431Z,933.65
2023-03-17T09:16:00.693Z,933.7
2023-03-17T09:17:01.017Z,933.64
2023-03-17T09:18:01.990Z,933.7
2023-03-17T09:19:02.479Z,933.72
2023-03-17T09:20:03.522Z,933.67
2023-03-17T09:21:04.084Z,933.66
2023-03-17T09:22:04.823Z,933.69
2023-03-17T09:23:05.389Z,933.67
2023-03-17T09:24:05.702Z,933.67
2023-03-17T09:25:06.554Z,933.68
2023-03-17T09:26:06.839Z,933.65
2023-03-17T09:27:07.142Z,933.67
2023-03-17T09:28:07.775Z,933.64
2023-03-17T09:29:08.234Z,933.68
2023-03-17T09:30:08.484Z,933.68
2023-03-17T09:31:09.543Z,933.65
2023-03-17T09:32:09.706Z,933.67
2023-03-17T09:33:10.841Z,933.63
2023-03-17T09:34:11.194Z,933.63
2023-03-17T09:35:11.701Z,933.63
2023-03-17T09:36:12.053Z,933.63
2023-03-17T09:37:12.610Z,933.61
2023-03-17T09:38:13.566Z,933.62
2023-03-17T09:39:13.814Z,933.61
2023-03-17T09:40:14.021Z,933.6
2023-03-17T09:41:14.602Z,933.64
2023-03-17T09:42:15.361Z,933.65
2023-03-17T09:43:16.049Z,933.67
2023-03-17T09:44:17.062Z,933.67
2023-03-17T09:45:17.438Z,933.67
2023-03-17T09:46:17.726Z,933.68
2023-03-17T09:47:17.913Z,933.72
2023-03-17T09:48:18.153Z,933.73
2023-03-17T09:49:18.819Z,933.7
2023-03-17T09:50:19.758Z,933.64
2023-03-17T09:51:20.310Z,933.73
2023-03-17T09:52:20.844Z,933.71
2023-03-17T09:53:21.176Z,933.75
2023-03-17T09:54:21.997Z,933.75
2023-03-17T09:55:22.108Z,933.74
2023-03-17T09:56:22.946Z,933.73
2023-03-17T09:57:23.918Z,933.72
2023-03-17T09:58:24.743Z,933.7
2023-03-17T09:59:25.757Z,933.64
2023-03-17T10:00:26.854Z,933.71
2023-03-17T10:01:27.550Z,933.69
2023-03-17T10:02:27.847Z,933.71
2023-03-17T10:03:28.052Z,933.71
2023-03-17T10:04:29.063Z,933.68
2023-03-17T10:05:29.799Z,933.66
2023-03-17T10:06:29.655Z,933.64
2023-03-17T10:07:30.420Z,933.62
2023-03-17T10:08:32.303Z,933.63
2023-03-17T10:09:32.386Z,933.66
2023-03-17T10:10:33.625Z,933.61
2023-03-17T10:11:33.903Z,933.64
2023-03-17T10:12:34.630Z,933.66
2023-03-17T10:13:35.233Z,933.67
2023-03-17T10:14:36.182Z,933.67
2023-03-17T10:15:36.963Z,933.64
2023-03-17T10:16:38.135Z,933.65
2023-03-17T10:17:38.456Z,933.65
2023-03-17T10:18:38.989Z,933.61
2023-03-17T10:19:39.214Z,933.61
2023-03-17T10:20:40.175Z,933.58
2023-03-17T10:21:40.581Z,933.58
2023-03-17T10:22:41.544Z,933.57
2023-03-17T10:23:41.826Z,933.54
2023-03-17T10:24:42.079Z,933.53
2023-03-17T10:25:43.087Z,933.48
2023-03-17T10:26:43.384Z,933.5
2023-03-17T10:27:43.919Z,933.46
2023-03-17T10:28:44.556Z,933.48
2023-03-17T10:29:46.505Z,933.45
2023-03-17T10:30:45.445Z,933.46
2023-03-17T10:31:46.421Z,933.45
2023-03-17T10:32:47.294Z,933.47
2023-03-17T10:33:48.077Z,933.51
2023-03-17T10:34:48.289Z,933.52
2023-03-17T10:35:49.147Z,933.5
2023-03-17T10:36:49.765Z,933.53
2023-03-17T10:37:51.136Z,933.52
2023-03-17T10:38:51.081Z,933.54
2023-03-17T10:39:51.367Z,933.55
2023-03-17T10:40:51.882Z,933.53
2023-03-17T10:41:52.819Z,933.55
2023-03-17T10:42:53.404Z,933.53
2023-03-17T10:43:54.005Z,933.52
2023-03-17T10:44:54.980Z,933.51
2023-03-17T10:45:55.404Z,933.53
2023-03-17T10:46:55.986Z,933.49
2023-03-17T10:47:56.766Z,933.53
2023-03-17T10:48:57.289Z,933.47
2023-03-17T10:49:57.548Z,933.46
2023-03-17T10:50:58.562Z,933.47
2023-03-17T10:51:59.191Z,933.48
2023-03-17T10:53:00.215Z,933.5
2023-03-17T10:54:00.430Z,933.53
2023-03-17T10:55:01.384Z,933.52
2023-03-17T10:56:01.789Z,933.54
2023-03-17T10:57:02.062Z,933.54
2023-03-17T10:58:03.157Z,933.53
2023-03-17T10:59:03.818Z,933.55
2023-03-17T11:00:04.782Z,933.52
2023-03-17T11:01:05.367Z,933.53
2023-03-17T11:02:05.988Z,933.52
2023-03-17T11:03:06.521Z,933.47
2023-03-17T11:04:07.659Z,933.44
2023-03-17T11:05:07.770Z,933.48
2023-03-17T11:06:08.135Z,933.5
2023-03-17T11:07:08.350Z,933.49
2023-03-17T11:08:09.282Z,933.47
2023-03-17T11:09:09.856Z,933.43
2023-03-17T11:10:10.229Z,933.43
2023-03-17T11:11:10.955Z,933.44
2023-03-17T11:12:11.358Z,933.38
2023-03-17T11:13:12.337Z,933.39
2023-03-17T11:14:12.988Z,933.4
2023-03-17T11:15:13.663Z,933.42
2023-03-17T11:16:13.857Z,933.38
2023-03-17T11:17:14.299Z,933.42
2023-03-17T11:18:14.850Z,933.44
2023-03-17T11:19:15.669Z,933.42
2023-03-17T11:20:16.184Z,933.41
2023-03-17T11:21:16.763Z,933.35
2023-03-17T11:22:17.718Z,933.32
2023-03-17T11:23:18.266Z,933.34
2023-03-17T11:24:19.228Z,933.31
2023-03-17T11:25:19.935Z,933.29
2023-03-17T11:26:20.321Z,933.27
2023-03-17T11:27:21.323Z,933.26
2023-03-17T11:28:21.800Z,933.29
2023-03-17T11:29:22.412Z,933.26
2023-03-17T11:30:22.960Z,933.28
2023-03-17T11:31:23.661Z,933.23
2023-03-17T11:32:24.489Z,933.25
2023-03-17T11:33:24.773Z,933.22
2023-03-17T11:34:25.753Z,933.14
2023-03-17T11:35:26.003Z,933.18
2023-03-17T11:36:26.742Z,933.16
2023-03-17T11:37:27.000Z,933.14
2023-03-17T11:38:28.048Z,933.14
2023-03-17T11:39:28.317Z,933.09
2023-03-17T11:40:29.443Z,933.11
2023-03-17T11:41:30.337Z,933.12
2023-03-17T11:42:30.947Z,933.11
2023-03-17T11:43:31.541Z,933.08
2023-03-17T11:44:32.154Z,933.07
2023-03-17T11:45:32.458Z,933.09
2023-03-17T11:46:33.393Z,933.13
2023-03-17T11:47:34.087Z,933.07
2023-03-17T11:48:35.071Z,933.05
2023-03-17T11:49:36.023Z,933.06
2023-03-17T11:50:36.537Z,933.03
2023-03-17T11:51:37.494Z,933.06
2023-03-17T11:52:37.720Z,933.05
2023-03-17T11:53:38.890Z,933.05
2023-03-17T11:54:39.396Z,933.06
2023-03-17T11:55:40.340Z,933.06
2023-03-17T11:56:41.029Z,933.05
2023-03-17T11:57:41.239Z,933.06
2023-03-17T11:58:41.781Z,933.02
2023-03-17T11:59:42.600Z,933.03
2023-03-17T12:00:43.872Z,933.03
2023-03-17T12:01:43.902Z,933.03
2023-03-17T12:02:44.130Z,932.98
2023-03-17T12:03:44.404Z,932.99
2023-03-17T12:04:44.642Z,932.98
2023-03-17T12:05:45.377Z,932.98
2023-03-17T12:06:45.736Z,932.98
2023-03-17T12:07:46.260Z,932.98
2023-03-17T12:08:47.225Z,933.01
2023-03-17T12:09:47.479Z,932.96
2023-03-17T12:10:48.414Z,932.99
2023-03-17T12:11:48.657Z,932.99
2023-03-17T12:12:49.288Z,932.97
2023-03-17T12:13:50.001Z,932.99
2023-03-17T12:14:50.603Z,932.95
2023-03-17T12:15:51.317Z,932.94
2023-03-17T12:16:51.701Z,932.93
2023-03-17T12:17:51.935Z,932.89
2023-03-17T12:18:52.429Z,932.84
2023-03-17T12:19:52.952Z,932.82
2023-03-17T12:20:53.546Z,932.82
2023-03-17T12:21:54.500Z,932.8
2023-03-17T12:22:56.666Z,932.76
2023-03-17T12:23:55.660Z,932.78
2023-03-17T12:24:55.878Z,932.76
2023-03-17T12:25:56.935Z,932.74
2023-03-17T12:26:57.308Z,932.74
2023-03-17T12:27:57.550Z,932.7
2023-03-17T12:28:57.858Z,932.67
2023-03-17T12:29:58.455Z,932.7
2023-03-17T12:30:58.628Z,932.68
2023-03-17T12:31:59.133Z,932.71
2023-03-17T12:32:59.735Z,932.67
2023-03-17T12:33:59.952Z,932.67
2023-03-17T12:35:00.940Z,932.67
2023-03-17T12:36:01.943Z,932.65
2023-03-17T12:37:02.973Z,932.63
2023-03-17T12:38:03.212Z,932.62
2023-03-17T12:39:04.145Z,932.56
2023-03-17T12:40:04.389Z,932.59
2023-03-17T12:41:05.361Z,932.57
2023-03-17T12:42:05.613Z,932.55
2023-03-17T12:43:06.559Z,932.57
2023-03-17T12:44:06.832Z,932.57
2023-03-17T12:45:07.416Z,932.62
2023-03-17T12:46:08.194Z,932.6
2023-03-17T12:47:08.762Z,932.64
2023-03-17T12:48:08.994Z,932.61
2023-03-17T12:49:09.676Z,932.59
2023-03-17T12:50:09.904Z,932.61
2023-03-17T12:51:10.567Z,932.55
2023-03-17T12:52:11.221Z,932.53
2023-03-17T12:53:12.163Z,932.51
2023-03-17T12:54:12.812Z,932.54
2023-03-17T12:55:13.322Z,932.51
2023-03-17T12:56:13.920Z,932.48
2023-03-17T12:57:14.293Z,932.46
2023-03-17T12:58:14.807Z,932.41
2023-03-17T12:59:15.669Z,932.43
2023-03-17T13:00:16.270Z,932.46
2023-03-17T13:01:16.859Z,932.44
2023-03-17T13:02:17.383Z,932.46
2023-03-17T13:03:18.516Z,932.45
2023-03-17T13:04:18.561Z,932.41
2023-03-17T13:05:18.713Z,932.39
2023-03-17T13:06:19.705Z,932.41
2023-03-17T13:07:20.773Z,932.44
2023-03-17T13:08:21.476Z,932.44
2023-03-17T13:09:21.982Z,932.4
2023-03-17T13:10:22.185Z,932.42
2023-03-17T13:11:22.414Z,932.42
2023-03-17T13:12:22.956Z,932.39
2023-03-17T13:13:23.290Z,932.38
2023-03-17T13:14:23.578Z,932.41
2023-03-17T13:15:24.217Z,932.37
2023-03-17T13:16:26.630Z,932.35
2023-03-17T13:17:25.092Z,932.35
2023-03-17T13:18:25.606Z,932.34
2023-03-17T13:19:26.562Z,932.34
2023-03-17T13:20:27.504Z,932.35
2023-03-17T13:21:28.790Z,932.33
2023-03-17T13:22:28.733Z,932.36
2023-03-17T13:23:29.257Z,932.37
2023-03-17T13:24:29.502Z,932.39
2023-03-17T13:25:29.987Z,932.37
2023-03-17T13:26:30.773Z,932.36
2023-03-17T13:27:31.890Z,932.36
2023-03-17T13:28:32.640Z,932.39
2023-03-17T13:29:32.913Z,932.36
2023-03-17T13:30:33.590Z,932.34
2023-03-17T13:31:34.177Z,932.38
2023-03-17T13:32:34.492Z,932.38
2023-03-17T13:33:35.095Z,932.35
2023-03-17T13:34:35.348Z,932.36
2023-03-17T13:35:36.362Z,932.3
2023-03-17T13:36:37.093Z,932.3
2023-03-17T13:37:38.198Z,932.28
2023-03-17T13:38:38.588Z,932.27
2023-03-17T13:39:39.563Z,932.31
2023-03-17T13:40:39.806Z,932.29
2023-03-17T13:41:40.328Z,932.31
2023-03-17T13:42:40.527Z,932.3
2023-03-17T13:43:43.475Z,932.3
2023-03-17T13:44:41.844Z,932.31
2023-03-17T13:45:42.701Z,932.28
2023-03-17T13:46:43.043Z,932.31
2023-03-17T13:47:43.753Z,932.3
2023-03-17T13:48:44.129Z,932.28
2023-03-17T13:49:44.650Z,932.28
2023-03-17T13:50:44.901Z,932.3
2023-03-17T13:51:52.867Z,932.27
2023-03-17T13:52:46.296Z,932.27
2023-03-17T13:53:46.869Z,932.2
2023-03-17T13:54:47.312Z,932.2
2023-03-17T13:55:47.577Z,932.17
2023-03-17T13:56:47.841Z,932.2
2023-03-17T13:57:48.324Z,932.21
2023-03-17T13:58:48.688Z,932.21
2023-03-17T13:59:49.019Z,932.2
2023-03-17T14:00:49.747Z,932.21
2023-03-17T14:01:50.417Z,932.18
2023-03-17T14:02:51.355Z,932.17
2023-03-17T14:03:52.081Z,932.18
2023-03-17T14:04:52.444Z,932.14
2023-03-17T14:05:52.745Z,932.16
2023-03-17T14:06:53.683Z,932.14
2023-03-17T14:07:54.079Z,932.13
2023-03-17T14:08:54.293Z,932.16
2023-03-17T14:09:54.523Z,932.09
2023-03-17T14:10:55.209Z,932.11
2023-03-17T14:11:55.554Z,932.17
2023-03-17T14:12:56.540Z,932.18
2023-03-17T14:13:57.046Z,932.16
2023-03-17T14:14:57.568Z,932.17
2023-03-17T14:15:58.180Z,932.13
2023-03-17T14:16:58.476Z,932.12
2023-03-17T14:17:59.245Z,932.14
2023-03-17T14:18:59.539Z,932.12
2023-03-17T14:20:00.060Z,932.12
2023-03-17T14:21:00.577Z,932.1
2023-03-17T14:22:01.259Z,932.09
2023-03-17T14:23:02.217Z,932.09
2023-03-17T14:24:02.722Z,932.03
2023-03-17T14:25:02.974Z,932.03
2023-03-17T14:26:03.213Z,932
2023-03-17T14:27:04.162Z,931.99
2023-03-17T14:28:05.213Z,931.99
2023-03-17T14:29:05.675Z,931.96
2023-03-17T14:30:06.307Z,931.98
2023-03-17T14:31:07.093Z,931.96
2023-03-17T14:32:07.362Z,931.94
2023-03-17T14:33:08.428Z,931.95
2023-03-17T14:34:08.584Z,931.92
2023-03-17T14:35:09.534Z,931.9
2023-03-17T14:36:10.797Z,931.87
2023-03-17T14:37:10.728Z,931.91
2023-03-17T14:38:11.506Z,931.89
2023-03-17T14:39:12.458Z,931.86
2023-03-17T14:40:13.406Z,931.91
2023-03-17T14:41:13.649Z,931.85
2023-03-17T14:42:14.599Z,931.85
2023-03-17T14:43:14.952Z,931.86
2023-03-17T14:44:15.915Z,931.84
2023-03-17T14:45:16.903Z,931.84
2023-03-17T14:46:18.005Z,931.79
2023-03-17T14:47:18.442Z,931.82
2023-03-17T14:48:18.876Z,931.78
2023-03-17T14:49:19.245Z,931.78
2023-03-17T14:50:20.206Z,931.79
2023-03-17T14:51:20.452Z,931.75
2023-03-17T14:52:20.962Z,931.75
2023-03-17T14:53:21.183Z,931.75
2023-03-17T14:54:21.425Z,931.67
2023-03-17T14:55:21.712Z,931.71
2023-03-17T14:56:21.877Z,931.7
2023-03-17T14:57:22.578Z,931.69
2023-03-17T14:58:23.269Z,931.69
2023-03-17T14:59:23.500Z,931.69
2023-03-17T15:00:23.781Z,931.67
2023-03-17T15:01:24.916Z,931.71
2023-03-17T15:02:25.447Z,931.7
2023-03-17T15:03:25.872Z,931.68
2023-03-17T15:04:26.177Z,931.65
2023-03-17T15:05:27.124Z,931.64
2023-03-17T15:06:27.862Z,931.63
2023-03-17T15:07:28.326Z,931.59
2023-03-17T15:08:29.136Z,931.64
2023-03-17T15:09:30.186Z,931.65
2023-03-17T15:10:31.211Z,931.62
2023-03-17T15:11:31.593Z,931.63
2023-03-17T15:12:32.136Z,931.64
2023-03-17T15:13:32.402Z,931.65
2023-03-17T15:14:33.388Z,931.63
2023-03-17T15:15:34.159Z,931.61
2023-03-17T15:16:34.855Z,931.6
2023-03-17T15:17:35.184Z,931.58
2023-03-17T15:18:36.260Z,931.58
2023-03-17T15:19:36.943Z,931.57
2023-03-17T15:20:37.902Z,931.55
2023-03-17T15:21:38.223Z,931.52
2023-03-17T15:22:38.438Z,931.51
2023-03-17T15:23:39.125Z,931.5
2023-03-17T15:24:39.423Z,931.47
2023-03-17T15:25:40.385Z,931.5
2023-03-17T15:26:41.343Z,931.5
2023-03-17T15:27:41.579Z,931.49
2023-03-17T15:28:41.959Z,931.49
2023-03-17T15:29:42.344Z,931.47
2023-03-17T15:30:47.364Z,931.44
2023-03-17T15:31:43.248Z,931.47
2023-03-17T15:32:43.641Z,931.49
2023-03-17T15:33:44.583Z,931.47
2023-03-17T15:34:44.802Z,931.5
2023-03-17T15:35:45.335Z,931.48
2023-03-17T15:36:45.566Z,931.51
2023-03-17T15:37:46.403Z,931.48
2023-03-17T15:38:46.849Z,931.47
2023-03-17T15:39:47.100Z,931.44
2023-03-17T15:40:47.372Z,931.46
2023-03-17T15:41:48.364Z,931.46
2023-03-17T15:42:49.015Z,931.44
2023-03-17T15:43:49.268Z,931.44
2023-03-17T15:44:50.205Z,931.44
2023-03-17T15:45:51.341Z,931.43
2023-03-17T15:46:52.256Z,931.42
2023-03-17T15:47:52.807Z,931.42
2023-03-17T15:48:53.149Z,931.42
2023-03-17T15:49:53.833Z,931.41
2023-03-17T15:50:54.877Z,931.39
2023-03-17T15:51:55.812Z,931.41
2023-03-17T15:52:56.747Z,931.4
2023-03-17T15:53:57.796Z,931.39
2023-03-17T15:54:58.046Z,931.42
2023-03-17T15:55:58.525Z,931.42
2023-03-17T15:56:59.493Z,931.36
2023-03-17T15:57:59.732Z,931.38
2023-03-17T15:59:00.469Z,931.38
2023-03-17T16:00:01.139Z,931.35
2023-03-17T16:01:02.199Z,931.36
2023-03-17T16:02:02.967Z,931.38
2023-03-17T16:03:03.544Z,931.4
2023-03-17T16:04:04.055Z,931.35
2023-03-17T16:05:04.283Z,931.39
2023-03-17T16:06:04.847Z,931.41
2023-03-17T16:07:05.137Z,931.35
2023-03-17T16:08:05.377Z,931.36
2023-03-17T16:09:06.445Z,931.39
2023-03-17T16:10:06.951Z,931.4
2023-03-17T16:11:07.906Z,931.42
2023-03-17T16:12:08.154Z,931.38
2023-03-17T16:13:08.779Z,931.45
2023-03-17T16:14:09.070Z,931.44
2023-03-17T16:15:20.257Z,931.41
2023-03-17T16:16:09.816Z,931.42
2023-03-17T16:17:10.120Z,931.42
2023-03-17T16:18:10.661Z,931.43
2023-03-17T16:19:11.727Z,931.38
2023-03-17T16:20:12.696Z,931.38
2023-03-17T16:21:13.472Z,931.39
2023-03-17T16:22:14.000Z,931.34
2023-03-17T16:23:14.634Z,931.37
2023-03-17T16:24:15.153Z,931.37
2023-03-17T16:25:15.360Z,931.36
2023-03-17T16:26:16.973Z,931.34
2023-03-17T16:27:16.337Z,931.37
2023-03-17T16:28:16.589Z,931.35
2023-03-17T16:29:16.813Z,931.35
2023-03-17T16:30:17.734Z,931.34
2023-03-17T16:31:18.877Z,931.34
2023-03-17T16:32:19.649Z,931.33
2023-03-17T16:33:20.721Z,931.3
2023-03-17T16:34:21.671Z,931.3
2023-03-17T16:35:22.351Z,931.31
2023-03-17T16:36:23.417Z,931.26
2023-03-17T16:37:23.646Z,931.33
2023-03-17T16:38:24.564Z,931.33
2023-03-17T16:39:25.594Z,931.33
2023-03-17T16:40:26.598Z,931.34
2023-03-17T16:41:26.768Z,931.36
2023-03-17T16:42:27.695Z,931.38
2023-03-17T16:43:28.622Z,931.37
2023-03-17T16:44:29.629Z,931.37
2023-03-17T16:45:29.989Z,931.35
2023-03-17T16:46:32.179Z,931.39
2023-03-17T16:47:31.257Z,931.4
2023-03-17T16:48:31.529Z,931.39
2023-03-17T16:49:32.325Z,931.4
2023-03-17T16:50:33.684Z,931.41
2023-03-17T16:51:33.847Z,931.41
2023-03-17T16:52:34.391Z,931.36
2023-03-17T16:53:35.052Z,931.4
2023-03-17T16:54:35.287Z,931.45
2023-03-17T16:55:35.502Z,931.38
2023-03-17T16:56:36.497Z,931.41
2023-03-17T16:57:37.143Z,931.4
2023-03-17T16:58:37.353Z,931.41
2023-03-17T16:59:38.437Z,931.43
2023-03-17T17:00:39.425Z,931.4
2023-03-17T17:01:40.438Z,931.39
2023-03-17T17:02:41.204Z,931.38
2023-03-17T17:03:42.047Z,931.41
2023-03-17T17:04:42.564Z,931.43
2023-03-17T17:05:42.784Z,931.44
2023-03-17T17:06:43.719Z,931.43
2023-03-17T17:07:44.729Z,931.4
2023-03-17T17:08:45.092Z,931.41
2023-03-17T17:09:45.876Z,931.4
2023-03-17T17:10:46.820Z,931.42
2023-03-17T17:11:47.763Z,931.4
2023-03-17T17:12:48.399Z,931.39
2023-03-17T17:13:49.304Z,931.45
2023-03-17T17:14:49.542Z,931.41
2023-03-17T17:15:50.610Z,931.42
2023-03-17T17:16:50.846Z,931.43
2023-03-17T17:17:51.133Z,931.37
2023-03-17T17:18:51.365Z,931.35
2023-03-17T17:19:52.458Z,931.36
2023-03-17T17:20:53.096Z,931.37
2023-03-17T17:21:53.944Z,931.36
2023-03-17T17:22:54.149Z,931.32
2023-03-17T17:23:55.222Z,931.34
2023-03-17T17:24:55.426Z,931.34
2023-03-17T17:25:55.926Z,931.32
2023-03-17T17:26:56.160Z,931.34
2023-03-17T17:27:56.869Z,931.35
2023-03-17T17:28:57.095Z,931.37
2023-03-17T17:29:58.158Z,931.36
2023-03-17T17:30:59.078Z,931.36
2023-03-17T17:31:59.688Z,931.39
2023-03-17T17:33:00.293Z,931.4
2023-03-17T17:34:00.617Z,931.4
2023-03-17T17:35:00.833Z,931.44
2023-03-17T17:36:01.150Z,931.46
2023-03-17T17:37:01.576Z,931.37
2023-03-17T17:38:02.120Z,931.41
2023-03-17T17:39:02.408Z,931.42
2023-03-17T17:40:03.413Z,931.43
2023-03-17T17:41:04.356Z,931.41
2023-03-17T17:42:04.555Z,931.42
2023-03-17T17:43:04.834Z,931.42
2023-03-17T17:44:05.560Z,931.39
2023-03-17T17:45:06.254Z,931.39
2023-03-17T17:46:06.783Z,931.4
2023-03-17T17:47:07.484Z,931.37
2023-03-17T17:48:07.516Z,931.4
2023-03-17T17:49:07.862Z,931.4
2023-03-17T17:50:08.908Z,931.4
2023-03-17T17:51:09.875Z,931.4
2023-03-17T17:52:10.868Z,931.39
2023-03-17T17:53:11.102Z,931.37
2023-03-17T17:54:11.322Z,931.36
2023-03-17T17:55:12.280Z,931.36
2023-03-17T17:56:12.532Z,931.38
2023-03-17T17:57:13.165Z,931.37
2023-03-17T17:58:14.079Z,931.33
2023-03-17T17:59:14.329Z,931.34
2023-03-17T18:00:14.869Z,931.38
2023-03-17T18:01:15.522Z,931.41
2023-03-17T18:02:16.022Z,931.43
2023-03-17T18:03:16.365Z,931.43
2023-03-17T18:04:16.746Z,931.4
2023-03-17T18:05:17.313Z,931.44
2023-03-17T18:06:17.836Z,931.41
2023-03-17T18:07:18.037Z,931.45
2023-03-17T18:08:18.684Z,931.47
2023-03-17T18:09:18.917Z,931.46
2023-03-17T18:10:19.888Z,931.49
2023-03-17T18:11:20.293Z,931.52
2023-03-17T18:12:20.943Z,931.52
2023-03-17T18:13:21.142Z,931.53
2023-03-17T18:14:21.424Z,931.53
2023-03-17T18:15:21.631Z,931.54
2023-03-17T18:16:22.574Z,931.54
2023-03-17T18:17:22.822Z,931.56
2023-03-17T18:18:22.926Z,931.6
2023-03-17T18:19:23.451Z,931.61
2023-03-17T18:20:24.470Z,931.6
2023-03-17T18:21:24.713Z,931.61
2023-03-17T18:22:25.640Z,931.59
2023-03-17T18:23:26.266Z,931.64
2023-03-17T18:24:26.936Z,931.62
2023-03-17T18:25:27.892Z,931.64
2023-03-17T18:26:28.134Z,931.65
2023-03-17T18:27:28.368Z,931.62
2023-03-17T18:28:28.588Z,931.65
2023-03-17T18:29:29.532Z,931.67
2023-03-17T18:30:30.917Z,931.66
2023-03-17T18:31:30.883Z,931.67
2023-03-17T18:32:31.225Z,931.69
2023-03-17T18:33:31.836Z,931.72
2023-03-17T18:34:32.802Z,931.74
2023-03-17T18:35:33.785Z,931.74
2023-03-17T18:36:34.566Z,931.77
2023-03-17T18:37:34.797Z,931.79
2023-03-17T18:38:35.013Z,931.79
2023-03-17T18:39:35.964Z,931.74
2023-03-17T18:40:47.930Z,931.75
2023-03-17T18:41:48.891Z,931.76
2023-03-17T18:42:49.545Z,931.75
2023-03-17T18:43:50.469Z,931.76
2023-03-17T18:44:50.817Z,931.75
2023-03-17T18:45:51.499Z,931.74
2023-03-17T18:46:52.071Z,931.73
2023-03-17T18:47:53.016Z,931.75
2023-03-17T18:48:53.292Z,931.74
2023-03-17T18:49:53.876Z,931.74
2023-03-17T18:50:54.955Z,931.74
2023-03-17T18:51:55.531Z,931.75
2023-03-17T18:52:56.479Z,931.79
2023-03-17T18:53:57.480Z,931.78
2023-03-17T18:54:58.192Z,931.77
2023-03-17T18:55:59.182Z,931.81
2023-03-17T18:56:59.863Z,931.78
2023-03-17T18:58:00.538Z,931.78
2023-03-17T18:59:01.057Z,931.77
2023-03-17T19:00:01.264Z,931.77
2023-03-17T19:01:02.372Z,931.75
2023-03-17T19:02:02.540Z,931.77
2023-03-17T19:03:02.881Z,931.79
2023-03-17T19:04:03.692Z,931.79
2023-03-17T19:05:04.228Z,931.82
2023-03-17T19:06:04.941Z,931.79
2023-03-17T19:07:05.870Z,931.81
2023-03-17T19:08:06.361Z,931.83
2023-03-17T19:09:06.872Z,931.87
2023-03-17T19:10:07.832Z,931.85
2023-03-17T19:11:08.438Z,931.89
2023-03-17T19:12:09.126Z,931.88
2023-03-17T19:13:10.360Z,931.89
2023-03-17T19:14:10.324Z,931.9
2023-03-17T19:15:11.223Z,931.89
2023-03-17T19:16:11.789Z,931.91
2023-03-17T19:17:12.630Z,931.89
2023-03-17T19:18:13.191Z,931.89
2023-03-17T19:19:13.733Z,931.89
2023-03-17T19:20:14.002Z,931.9
2023-03-17T19:21:14.355Z,931.91
2023-03-17T19:22:15.028Z,931.86
2023-03-17T19:23:15.692Z,931.84
2023-03-17T19:24:16.604Z,931.86